Albany, New York
Traffic Map
Current Weather Conditions
Albany, New York
Scattered Clouds
Scattered Clouds
29°
Feels Like: 31°
Wind Chill: 29° Ceiling: Unl
Heat Index: 31° Visibility: 10mi
Dew Point: 20° Wind: 7mph
Humidity: 58% Direction: 210° (SSW)
Pressure: 29.86in Gusts: 0mph
Raw Report DataKALB 021651Z 21006KT 10SM FEW035 FEW045 SCT090 SCT260 29/20 A2986 RMK AO2 SLP109 T02890200 $
Traffic Incident Summary
Active as of:
Severity:
Category:
InformationThere was an issue retrieving the traffic information for this location. Please try a different location or try again shortly.
Advertisements
Track Severe Weather on mobile